Time;durP1;ratioP1;P1;durP2;ratioP2;P2;SDS_P1;SDS_P2;PMS_P1;PMS_P2;Temp;Humidity;BMP_temperature;BMP_pressure;BME280_temperature;BME280_humidity;BME280_pressure;Samples;Min_cycle;Max_cycle;Signal;HPM_P1;HPM_P2
2022/06/06 00:02:16;;;;;;;7.10;4.63;;;;;;;20.89;49.53;100522.09;5032949;28;20067;-80
2022/06/06 00:04:43;;;;;;;6.22;4.50;;;;;;;20.88;49.21;100523.09;5015723;28;20056;-80
2022/06/06 00:07:11;;;;;;;4.95;4.45;;;;;;;20.88;49.23;100525.78;5034177;28;20049;-80
2022/06/06 00:09:38;;;;;;;4.03;3.67;;;;;;;20.86;49.48;100523.25;5015439;28;20140;-81
2022/06/06 00:12:06;;;;;;;4.90;4.43;;;;;;;20.85;49.59;100518.06;5033601;28;20066;-78
2022/06/06 00:14:34;;;;;;;5.60;4.30;;;;;;;20.85;49.21;100512.69;5017811;28;20139;-82
2022/06/06 00:17:02;;;;;;;7.13;4.88;;;;;;;20.84;49.56;100511.88;5015157;28;20052;-80
2022/06/06 00:19:32;;;;;;;4.55;4.15;;;;;;;20.82;49.56;100511.19;5012667;28;20053;-84
2022/06/06 00:22:03;;;;;;;5.55;4.95;;;;;;;20.82;49.58;100513.88;5017462;28;20045;-78
2022/06/06 00:24:31;;;;;;;7.88;4.70;;;;;;;20.81;49.47;100501.50;5033709;28;20441;-80
2022/06/06 00:27:00;;;;;;;5.97;5.10;;;;;;;20.81;49.47;100498.00;5031569;28;20064;-81
2022/06/06 00:29:27;;;;;;;5.45;4.57;;;;;;;20.81;49.36;100498.00;5031692;28;20148;-79
2022/06/06 00:34:53;;;;;;;6.03;4.63;;;;;;;20.81;49.66;100498.00;5054972;28;20091;-83
2022/06/06 00:37:26;;;;;;;6.07;4.82;;;;;;;20.80;49.41;100504.31;5018962;28;20041;-80
2022/06/06 00:39:56;;;;;;;5.07;4.57;;;;;;;20.80;49.72;100501.63;4996338;28;20069;-80
2022/06/06 00:42:31;;;;;;;5.03;4.25;;;;;;;20.79;49.82;100503.47;5008830;28;20040;-80
2022/06/06 00:45:14;;;;;;;5.45;4.88;;;;;;;20.78;49.63;100509.00;5029944;28;20072;-81
2022/06/06 00:47:45;;;;;;;5.20;4.70;;;;;;;20.78;49.94;100514.34;5029702;28;20188;-78
2022/06/06 00:50:17;;;;;;;6.30;5.65;;;;;;;20.78;49.98;100515.19;5030968;28;20068;-80
2022/06/06 00:52:48;;;;;;;5.50;5.00;;;;;;;20.80;50.17;100515.03;5016968;28;20530;-79
2022/06/06 00:55:17;;;;;;;5.55;4.97;;;;;;;20.79;50.72;100518.69;5027937;28;20057;-80
2022/06/06 00:58:19;;;;;;;5.07;4.30;;;;;;;20.79;51.37;100514.19;5012133;28;20079;-81
2022/06/06 01:00:51;;;;;;;7.60;5.20;;;;;;;20.78;51.61;100509.00;5014451;28;20048;-80
2022/06/06 01:03:23;;;;;;;6.28;5.35;;;;;;;20.76;52.11;100508.31;5016036;28;20132;-78
2022/06/06 01:05:52;;;;;;;6.30;5.07;;;;;;;20.71;52.83;100503.44;4994521;28;20418;-80
2022/06/06 01:08:22;;;;;;;7.30;5.75;;;;;;;20.70;53.55;100509.78;5032020;28;20202;-80
2022/06/06 01:10:49;;;;;;;7.97;5.68;;;;;;;20.64;53.66;100511.28;5030590;28;20090;-80
2022/06/06 01:13:17;;;;;;;5.28;4.78;;;;;;;20.58;55.54;100511.03;4998868;28;20056;-80
2022/06/06 01:16:17;;;;;;;8.35;5.90;;;;;;;20.53;56.18;100499.97;5022340;28;20052;-80
2022/06/06 01:19:07;;;;;;;6.60;5.10;;;;;;;20.47;56.14;100498.75;4986264;28;20049;-79
2022/06/06 01:22:07;;;;;;;5.43;4.80;;;;;;;20.44;56.51;100499.06;5029488;28;20475;-80
2022/06/06 01:24:39;;;;;;;8.13;4.97;;;;;;;20.40;56.86;100487.03;5030229;28;20107;-82
2022/06/06 01:27:29;;;;;;;6.93;5.07;;;;;;;20.39;57.29;100485.31;5023783;28;20393;-79
2022/06/06 01:30:04;;;;;;;5.80;5.20;;;;;;;20.35;58.19;100468.75;5010253;28;20049;-81
2022/06/06 01:32:53;;;;;;;6.50;5.70;;;;;;;20.32;58.36;100477.13;5010182;28;20060;-79
2022/06/06 01:35:37;;;;;;;6.93;5.72;;;;;;;20.27;58.68;100460.72;5020277;28;20575;-80
2022/06/06 01:38:05;;;;;;;6.50;5.90;;;;;;;20.23;59.86;100460.19;5021096;28;20081;-78
2022/06/06 01:40:46;;;;;;;6.75;5.70;;;;;;;20.19;60.06;100464.16;5057240;28;20053;-79
2022/06/06 01:43:17;;;;;;;6.05;5.55;;;;;;;20.16;60.10;100455.59;5020860;28;20102;-82
2022/06/06 01:45:47;;;;;;;6.35;5.75;;;;;;;20.13;61.15;100458.63;5019824;28;20056;-82
2022/06/06 01:48:19;;;;;;;6.95;6.25;;;;;;;20.08;60.92;100461.72;5049950;28;20049;-79
2022/06/06 01:50:47;;;;;;;6.90;5.70;;;;;;;20.05;60.86;100462.06;5020808;28;20052;-82
2022/06/06 01:53:17;;;;;;;6.50;5.30;;;;;;;20.04;61.35;100457.72;5038265;28;20052;-79
2022/06/06 01:55:47;;;;;;;6.75;5.63;;;;;;;20.03;60.85;100461.34;5019466;28;20045;-79
2022/06/06 01:58:28;;;;;;;6.78;5.80;;;;;;;20.02;60.84;100459.69;5021916;28;20594;-83
2022/06/06 02:00:57;;;;;;;6.63;6.03;;;;;;;20.02;60.48;100461.53;5018034;28;20048;-81
2022/06/06 02:03:25;;;;;;;9.65;5.72;;;;;;;20.02;60.66;100466.88;5021276;28;20074;-80
2022/06/06 02:05:53;;;;;;;9.25;5.50;;;;;;;20.01;60.20;100466.03;5018839;28;20148;-82
2022/06/06 02:08:21;;;;;;;6.53;5.68;;;;;;;20.03;61.00;100471.22;5022182;28;20519;-81
2022/06/06 02:10:48;;;;;;;8.07;6.05;;;;;;;20.01;60.79;100471.38;5003872;28;20152;-81
2022/06/06 02:13:17;;;;;;;6.10;5.47;;;;;;;20.00;61.09;100475.03;5020710;28;20045;-80
2022/06/06 02:15:45;;;;;;;7.38;5.75;;;;;;;20.00;60.44;100476.88;5033893;28;20093;-83
2022/06/06 02:18:13;;;;;;;8.40;6.18;;;;;;;19.98;60.89;100474.34;5035979;28;20106;-81
2022/06/06 02:20:42;;;;;;;7.72;6.03;;;;;;;19.96;60.75;100479.00;5016452;28;20506;-80
2022/06/06 02:23:09;;;;;;;7.05;6.13;;;;;;;19.95;60.80;100477.34;5036848;28;20049;-79
2022/06/06 02:25:38;;;;;;;7.30;5.72;;;;;;;19.91;61.03;100476.81;5033461;28;20055;-79
2022/06/06 02:28:06;;;;;;;9.15;6.22;;;;;;;19.89;60.69;100470.75;5001608;28;20285;-79
2022/06/06 02:30:36;;;;;;;6.43;5.75;;;;;;;19.88;60.16;100474.44;5053433;28;20049;-79
2022/06/06 02:33:06;;;;;;;8.85;5.47;;;;;;;19.89;59.94;100472.59;5035792;28;20140;-78
2022/06/06 02:35:38;;;;;;;6.38;5.45;;;;;;;19.89;60.20;100467.25;5035236;28;20037;-80
2022/06/06 02:38:08;;;;;;;9.63;6.10;;;;;;;19.88;60.40;100476.28;5019455;28;20049;-78
2022/06/06 02:40:36;;;;;;;6.22;5.35;;;;;;;19.89;60.78;100475.28;5016302;28;20041;-80
2022/06/06 02:43:04;;;;;;;6.95;5.65;;;;;;;19.88;60.97;100477.09;5033367;28;20094;-80
2022/06/06 02:45:31;;;;;;;7.53;6.13;;;;;;;19.89;61.00;100483.28;5019811;28;20041;-80
2022/06/06 02:48:08;;;;;;;9.57;6.20;;;;;;;19.87;61.92;100494.13;5033582;28;20044;-79
2022/06/06 02:50:36;;;;;;;9.65;6.47;;;;;;;19.84;62.17;100490.94;5031106;28;20056;-79
2022/06/06 02:53:06;;;;;;;7.18;6.43;;;;;;;19.82;64.36;100503.63;5016461;28;20057;-78
2022/06/06 02:55:35;;;;;;;8.32;7.35;;;;;;;19.68;67.63;100503.16;4999873;28;20063;-79
2022/06/06 02:58:02;;;;;;;10.23;8.05;;;;;;;19.56;70.41;100500.81;5029009;28;20164;-80
2022/06/06 03:00:32;;;;;;;8.70;7.88;;;;;;;19.43;71.14;100504.69;5014643;28;20049;-80
2022/06/06 03:03:00;;;;;;;9.02;8.13;;;;;;;19.36;73.33;100500.09;5016937;28;20045;-79
2022/06/06 03:06:02;;;;;;;10.85;7.55;;;;;;;19.31;73.39;100503.22;5017874;28;20053;-81
2022/06/06 03:09:02;;;;;;;11.13;8.85;;;;;;;19.21;75.62;100511.28;5036728;28;20124;-80
2022/06/06 03:11:59;;;;;;;9.90;8.88;;;;;;;19.06;78.24;100512.78;5050718;28;20114;-79
2022/06/06 03:15:07;;;;;;;9.52;8.63;;;;;;;18.98;79.29;100515.34;4997777;28;20055;-80
2022/06/06 03:20:56;;;;;;;10.20;9.30;;;;;;;18.81;82.01;100530.28;5018152;28;20041;-81
2022/06/06 03:23:34;;;;;;;10.57;9.48;;;;;;;18.77;82.84;100536.03;5035062;28;20045;-82
2022/06/06 03:26:27;;;;;;;10.98;9.88;;;;;;;18.69;84.90;100550.97;5051285;28;20071;-83
2022/06/06 03:29:30;;;;;;;11.60;10.60;;;;;;;18.64;85.98;100553.19;5032232;28;20064;-80
2022/06/06 03:32:54;;;;;;;11.35;10.25;;;;;;;18.60;89.96;100566.94;4983212;28;20049;-81
2022/06/06 03:35:41;;;;;;;13.77;9.98;;;;;;;18.49;91.88;100578.59;4986838;28;20046;-82
2022/06/06 03:38:26;;;;;;;13.45;12.02;;;;;;;18.39;93.46;100583.94;4989830;28;20050;-80
2022/06/06 03:41:34;;;;;;;14.38;13.05;;;;;;;18.30;98.85;100595.44;5038414;28;20136;-80
2022/06/06 03:44:13;;;;;;;18.17;13.50;;;;;;;18.19;100.00;100585.78;4965158;28;20125;-80
2022/06/06 03:46:53;;;;;;;16.67;14.43;;;;;;;18.03;100.00;100574.84;5041185;28;20067;-81
2022/06/06 03:49:40;;;;;;;15.05;13.65;;;;;;;17.90;100.00;100579.59;5031738;28;20523;-79
2022/06/06 03:52:14;;;;;;;16.67;15.05;;;;;;;17.80;100.00;100578.75;5042651;28;20104;-78
2022/06/06 03:54:50;;;;;;;17.90;15.07;;;;;;;17.68;100.00;100581.47;5050532;28;20155;-80
2022/06/06 03:57:24;;;;;;;18.42;16.52;;;;;;;17.61;100.00;100580.38;5013088;28;20052;-82
2022/06/06 04:00:06;;;;;;;16.33;14.70;;;;;;;17.59;100.00;100584.13;5008519;28;20045;-79
2022/06/06 04:02:43;;;;;;;17.50;15.80;;;;;;;17.58;100.00;100587.78;5045588;28;20057;-79
2022/06/06 04:05:16;;;;;;;16.80;15.13;;;;;;;17.57;100.00;100586.09;5031731;28;20056;-77
2022/06/06 04:07:44;;;;;;;21.70;16.08;;;;;;;17.56;100.00;100574.63;4999745;28;20127;-78
2022/06/06 04:10:16;;;;;;;17.42;15.65;;;;;;;17.58;100.00;100585.13;5012772;28;20391;-81
2022/06/06 04:13:11;;;;;;;18.67;16.88;;;;;;;17.52;100.00;100589.16;5032339;28;20067;-80
2022/06/06 04:15:41;;;;;;;17.45;15.75;;;;;;;17.48;100.00;100593.09;5009116;28;20064;-79
2022/06/06 04:18:33;;;;;;;17.73;15.93;;;;;;;17.50;100.00;100590.28;5031094;28;20083;-79
2022/06/06 04:21:12;;;;;;;17.42;15.73;;;;;;;17.52;100.00;100585.69;5026195;28;20140;-80
2022/06/06 04:24:10;;;;;;;17.48;15.93;;;;;;;17.53;100.00;100593.50;5012524;28;20057;-82
2022/06/06 04:27:11;;;;;;;15.98;14.52;;;;;;;17.55;100.00;100593.38;5046310;28;20644;-81
2022/06/06 04:29:46;;;;;;;14.43;12.93;;;;;;;17.56;100.00;100585.25;5013098;28;20389;-82
2022/06/06 04:32:13;;;;;;;15.88;14.23;;;;;;;17.59;100.00;100589.47;5021449;28;20080;-84
2022/06/06 04:35:07;;;;;;;14.32;12.93;;;;;;;17.55;100.00;100591.53;5048491;28;20063;-80
2022/06/06 04:38:02;;;;;;;14.85;13.38;;;;;;;17.55;100.00;100588.88;5012309;28;20460;-80
2022/06/06 04:40:49;;;;;;;14.63;13.35;;;;;;;17.57;100.00;100588.75;5048700;28;20468;-79
2022/06/06 04:43:38;;;;;;;13.95;12.65;;;;;;;17.56;100.00;100587.94;5043506;28;20048;-80
2022/06/06 04:46:19;;;;;;;14.98;12.80;;;;;;;17.58;100.00;100587.78;5008324;28;20054;-80
2022/06/06 04:48:46;;;;;;;15.15;13.18;;;;;;;17.60;100.00;100594.63;5049027;28;20049;-82
2022/06/06 04:51:19;;;;;;;14.40;13.10;;;;;;;17.62;100.00;100603.34;5025920;28;20067;-79
2022/06/06 04:53:49;;;;;;;17.38;13.80;;;;;;;17.63;100.00;100609.50;5027505;28;20072;-81
2022/06/06 04:56:18;;;;;;;14.52;13.23;;;;;;;17.64;100.00;100609.34;5026672;28;20527;-79
2022/06/06 04:58:51;;;;;;;14.15;12.93;;;;;;;17.66;100.00;100611.91;5009420;28;20542;-77
2022/06/06 05:01:18;;;;;;;14.95;13.35;;;;;;;17.70;100.00;100613.31;5011932;28;20567;-80
2022/06/06 05:03:53;;;;;;;15.82;14.43;;;;;;;17.67;100.00;100619.75;5028087;28;20049;-80
2022/06/06 05:06:49;;;;;;;13.75;12.45;;;;;;;17.70;100.00;100616.81;5031549;28;20057;-80
2022/06/06 05:09:47;;;;;;;15.77;13.32;;;;;;;17.72;100.00;100627.31;5029910;28;20060;-79
2022/06/06 05:13:01;;;;;;;13.75;12.40;;;;;;;17.76;100.00;100628.78;5020318;28;20049;-79
2022/06/06 05:16:20;;;;;;;14.00;12.70;;;;;;;17.84;100.00;100641.41;5025720;28;20055;-79
2022/06/06 05:19:03;;;;;;;13.88;11.63;;;;;;;17.90;100.00;100631.03;4986004;28;20100;-78
2022/06/06 05:22:13;;;;;;;13.63;12.32;;;;;;;17.97;100.00;100644.66;5022898;28;20435;-80
2022/06/06 05:24:51;;;;;;;11.40;10.38;;;;;;;18.04;100.00;100655.59;5018107;28;20404;-80
2022/06/06 05:27:58;;;;;;;13.20;11.90;;;;;;;18.10;100.00;100663.03;5014012;28;20045;-78
2022/06/06 05:30:53;;;;;;;13.50;12.20;;;;;;;18.19;100.00;100671.06;5040469;28;20091;-79
2022/06/06 05:33:33;;;;;;;11.80;10.50;;;;;;;18.22;100.00;100665.44;5010056;28;20419;-80
2022/06/06 05:36:26;;;;;;;11.88;10.70;;;;;;;18.33;100.00;100667.16;5012594;28;20482;-78
2022/06/06 05:39:11;;;;;;;12.88;10.98;;;;;;;18.53;100.00;100677.81;5014099;28;20417;-81
2022/06/06 05:42:10;;;;;;;10.52;9.15;;;;;;;18.64;100.00;100688.31;5029744;28;20057;-79
2022/06/06 05:45:10;;;;;;;11.55;9.10;;;;;;;18.67;100.00;100683.53;5019949;28;20055;-81
2022/06/06 05:48:01;;;;;;;10.20;9.20;;;;;;;18.71;100.00;100682.31;5030501;28;20500;-81
2022/06/06 05:50:34;;;;;;;11.02;8.80;;;;;;;18.85;100.00;100690.88;5027438;28;20156;-79
2022/06/06 05:53:12;;;;;;;9.52;8.63;;;;;;;18.98;100.00;100688.75;5046790;28;20068;-79
2022/06/06 05:55:54;;;;;;;9.25;8.45;;;;;;;19.15;100.00;100692.50;5008106;28;20140;-79
2022/06/06 05:58:48;;;;;;;8.88;7.97;;;;;;;19.32;100.00;100698.91;5043936;28;20091;-81
2022/06/06 06:01:21;;;;;;;10.10;9.15;;;;;;;19.43;100.00;100701.41;5024532;28;20098;-79
2022/06/06 06:04:16;;;;;;;10.20;9.30;;;;;;;19.39;100.00;100708.03;5028687;28;20059;-79
2022/06/06 06:06:51;;;;;;;11.32;10.13;;;;;;;19.38;100.00;100712.53;5010904;28;20123;-83
2022/06/06 06:09:30;;;;;;;12.68;10.48;;;;;;;19.35;100.00;100714.63;5029301;28;20045;-79
2022/06/06 06:12:03;;;;;;;9.95;9.15;;;;;;;19.49;100.00;100716.84;5041208;28;20175;-80
2022/06/06 06:14:48;;;;;;;10.73;9.73;;;;;;;19.56;100.00;100709.09;5032459;28;20057;-81
2022/06/06 06:17:19;;;;;;;11.07;9.98;;;;;;;19.63;100.00;100710.22;5023746;28;20470;-80
2022/06/06 06:19:53;;;;;;;10.00;9.10;;;;;;;19.72;100.00;100717.34;5019817;28;20049;-82
2022/06/06 06:22:21;;;;;;;11.30;10.30;;;;;;;19.59;100.00;100717.66;5016470;28;20476;-80
2022/06/06 06:24:50;;;;;;;11.13;10.02;;;;;;;19.56;100.00;100717.94;5028899;28;20053;-80
2022/06/06 06:27:20;;;;;;;10.18;9.27;;;;;;;19.57;100.00;100718.78;5016410;28;20042;-79
2022/06/06 06:29:47;;;;;;;9.70;8.80;;;;;;;19.63;100.00;100713.75;5015616;28;20057;-81
2022/06/06 06:32:37;;;;;;;10.38;9.48;;;;;;;19.52;100.00;100715.72;5013980;28;20076;-80
2022/06/06 06:35:07;;;;;;;9.40;8.50;;;;;;;19.57;100.00;100718.78;5025236;28;20140;-85
2022/06/06 06:37:52;;;;;;;8.82;8.02;;;;;;;19.37;97.42;100720.69;5013404;28;20096;-81
2022/06/06 06:40:52;;;;;;;8.90;8.00;;;;;;;19.50;97.96;100723.88;5031524;28;20075;-81
2022/06/06 06:43:38;;;;;;;8.15;7.30;;;;;;;19.48;96.68;100724.00;5031676;28;20041;-81
2022/06/06 06:46:14;;;;;;;8.65;7.78;;;;;;;19.28;93.94;100725.06;5025999;28;20069;-80
2022/06/06 06:48:45;;;;;;;8.77;7.88;;;;;;;19.35;94.41;100727.97;5013943;28;20045;-79
2022/06/06 06:51:36;;;;;;;8.90;8.00;;;;;;;19.52;94.83;100726.41;5007997;28;20048;-80
2022/06/06 06:54:25;;;;;;;8.50;6.80;;;;;;;19.52;92.53;100729.06;5015815;28;20455;-79
2022/06/06 06:57:19;;;;;;;7.45;6.72;;;;;;;19.40;91.06;100723.03;5042854;28;20052;-82
2022/06/06 07:00:03;;;;;;;8.05;7.20;;;;;;;19.54;89.43;100735.09;5027039;28;20061;-83
2022/06/06 07:09:07;;;;;;;9.90;6.40;;;;;;;19.82;86.97;100726.16;5014576;28;20049;-80
2022/06/06 07:11:57;;;;;;;6.97;6.30;;;;;;;19.85;86.70;100727.69;5029020;28;20526;-79
2022/06/06 07:14:41;;;;;;;7.07;6.38;;;;;;;19.87;85.46;100726.56;5014400;28;20068;-78
2022/06/06 07:17:10;;;;;;;8.38;7.55;;;;;;;19.89;82.29;100726.41;4996485;28;20055;-79
2022/06/06 07:19:38;;;;;;;7.88;7.10;;;;;;;19.92;82.66;100723.44;4995757;28;20060;-79
2022/06/06 07:22:06;;;;;;;8.55;7.75;;;;;;;20.03;82.82;100719.72;5027723;28;20104;-78
2022/06/06 07:24:35;;;;;;;8.68;7.78;;;;;;;20.16;83.16;100723.72;5015858;28;20087;-80
2022/06/06 07:27:02;;;;;;;10.73;8.00;;;;;;;20.21;79.32;100720.59;5026048;28;20498;-81
2022/06/06 07:29:30;;;;;;;8.88;7.57;;;;;;;20.09;78.29;100722.66;5012389;28;20061;-78
2022/06/06 07:32:15;;;;;;;9.63;8.07;;;;;;;20.05;78.55;100715.94;5047072;28;20110;-82
2022/06/06 07:34:56;;;;;;;;;;;;;;;19.98;76.44;100713.00;5029626;28;20119;-80
2022/06/06 07:37:27;;;;;;;7.97;7.05;;;;;;;20.00;76.45;100715.53;5047900;28;20023;-78
2022/06/06 07:40:30;;;;;;;8.27;7.45;;;;;;;20.23;76.90;100710.63;5047649;28;20061;-80
2022/06/06 07:43:21;;;;;;;9.65;6.85;;;;;;;20.36;76.96;100699.56;5030410;28;20354;-78
2022/06/06 07:45:52;;;;;;;7.53;6.13;;;;;;;20.61;77.10;100704.16;5011635;28;20048;-80
2022/06/06 07:48:34;;;;;;;7.15;6.13;;;;;;;20.82;75.43;100700.34;5015267;28;20055;-78
2022/06/06 07:51:26;;;;;;;6.72;6.03;;;;;;;20.72;73.67;100693.22;5029171;28;20512;-79
2022/06/06 07:54:30;;;;;;;6.88;6.20;;;;;;;20.82;72.98;100703.00;5006619;28;20392;-77
2022/06/06 07:57:34;;;;;;;8.50;6.15;;;;;;;20.97;72.01;100702.28;5045709;28;20056;-78
2022/06/06 08:00:18;;;;;;;5.93;5.28;;;;;;;21.20;71.96;100694.56;5012344;28;21521;-79
2022/06/06 08:02:58;;;;;;;6.90;6.20;;;;;;;21.25;70.13;100696.78;5012282;28;20056;-78
2022/06/06 08:05:28;;;;;;;7.13;5.30;;;;;;;21.38;70.41;100707.94;5027022;28;20045;-78
2022/06/06 08:08:08;;;;;;;6.65;5.95;;;;;;;21.46;67.94;100709.84;5026828;28;20139;-79
2022/06/06 08:10:44;;;;;;;6.00;5.43;;;;;;;21.40;67.71;100710.47;5047100;28;20064;-80
2022/06/06 08:13:35;;;;;;;6.70;5.88;;;;;;;21.46;67.31;100712.50;5046957;28;20049;-79
2022/06/06 08:16:03;;;;;;;;;;;;;;;21.60;66.29;100711.06;5026619;28;20832;-78
2022/06/06 08:18:55;;;;;;;6.97;5.30;;;;;;;21.59;66.93;100702.19;5030149;28;20018;-80
2022/06/06 08:21:43;;;;;;;6.55;5.65;;;;;;;21.79;63.68;100723.38;5027987;28;20287;-80
2022/06/06 08:24:39;;;;;;;5.85;4.95;;;;;;;21.94;63.83;100705.72;5031016;28;20065;-79
2022/06/06 08:27:20;;;;;;;6.78;5.50;;;;;;;22.04;64.03;100709.09;5030294;28;20136;-80
2022/06/06 08:29:48;;;;;;;7.20;5.57;;;;;;;21.88;64.53;100706.34;5009041;28;20500;-79
2022/06/06 08:32:15;;;;;;;5.97;5.28;;;;;;;22.12;63.24;100716.34;5029620;28;20362;-78
2022/06/06 08:34:43;;;;;;;6.60;6.00;;;;;;;22.33;61.98;100707.84;5012202;28;20049;-82
2022/06/06 08:37:32;;;;;;;5.85;5.25;;;;;;;22.50;61.10;100720.28;5027532;28;20047;-78
2022/06/06 08:40:25;;;;;;;5.68;5.03;;;;;;;22.71;61.32;100714.44;5026424;28;20277;-78
2022/06/06 08:43:03;;;;;;;6.90;5.72;;;;;;;22.80;60.53;100707.25;5046612;28;20068;-79
2022/06/06 08:45:47;;;;;;;6.00;5.25;;;;;;;22.60;60.06;100720.97;4991838;28;20165;-79
2022/06/06 08:48:41;;;;;;;5.30;4.80;;;;;;;22.44;59.71;100711.06;5029578;28;20053;-78
2022/06/06 08:51:24;;;;;;;5.18;4.38;;;;;;;22.33;59.82;100710.53;5043103;28;20463;-84
2022/06/06 08:54:16;;;;;;;4.60;4.03;;;;;;;22.48;58.60;100704.38;5026880;28;20107;-82
2022/06/06 08:57:06;;;;;;;4.63;4.13;;;;;;;22.93;57.10;100696.88;5043648;28;20547;-79
2022/06/06 08:59:53;;;;;;;4.80;4.32;;;;;;;23.19;56.46;100705.56;5028392;28;20076;-82
2022/06/06 09:02:45;;;;;;;4.35;3.83;;;;;;;23.40;56.09;100706.84;5019450;28;20152;-79
2022/06/06 09:05:26;;;;;;;5.30;4.40;;;;;;;23.63;54.63;100691.66;5027286;28;20045;-83
2022/06/06 09:08:12;;;;;;;4.82;4.43;;;;;;;23.83;54.47;100688.59;5009890;28;20086;-79
2022/06/06 09:11:21;;;;;;;5.82;4.30;;;;;;;23.88;54.58;100695.13;5034217;28;20071;-79
2022/06/06 09:14:26;;;;;;;4.72;4.28;;;;;;;23.53;54.72;100715.22;5017927;28;20063;-80
2022/06/06 09:17:16;;;;;;;6.68;4.10;;;;;;;23.00;54.89;100697.84;5044574;28;20388;-80
2022/06/06 09:20:05;;;;;;;5.10;4.47;;;;;;;22.73;56.61;100699.00;5029177;28;20160;-79
2022/06/06 09:23:07;;;;;;;5.47;4.53;;;;;;;22.90;56.03;100700.72;5022267;28;20057;-82
2022/06/06 09:25:37;;;;;;;4.82;3.97;;;;;;;23.13;55.14;100698.16;5010467;28;20053;-81
2022/06/06 09:28:39;;;;;;;5.20;3.65;;;;;;;23.25;55.45;100702.19;5028911;28;20060;-80
2022/06/06 09:31:37;;;;;;;5.65;4.00;;;;;;;23.21;53.27;100698.16;5026674;28;20068;-78
2022/06/06 09:34:25;;;;;;;4.10;3.70;;;;;;;23.53;52.22;100695.56;5026537;28;20061;-79
2022/06/06 09:37:14;;;;;;;4.65;4.03;;;;;;;23.64;52.24;100704.13;5026571;28;20041;-77
2022/06/06 09:39:56;;;;;;;4.43;3.95;;;;;;;23.56;53.16;100705.97;5026746;28;20045;-79
2022/06/06 09:42:42;;;;;;;3.45;3.15;;;;;;;23.53;53.38;100695.56;5012794;28;20128;-78
2022/06/06 09:46:05;;;;;;;4.82;4.10;;;;;;;23.49;54.09;100695.06;5010718;28;21265;-84
2022/06/06 09:49:06;;;;;;;4.18;3.60;;;;;;;23.69;53.07;100699.06;4970445;28;20080;-77
2022/06/06 09:52:00;;;;;;;3.78;3.38;;;;;;;23.97;52.20;100691.38;5049781;28;20041;-79
2022/06/06 10:01:11;;;;;;;4.82;3.42;;;;;;;24.20;51.29;100691.41;5031856;28;20415;-81
2022/06/06 10:04:15;;;;;;;4.53;3.28;;;;;;;24.10;50.75;100693.50;5011807;28;20774;-77
2022/06/06 10:07:01;;;;;;;4.15;3.55;;;;;;;23.74;52.38;100683.25;5032103;28;20136;-78
2022/06/06 10:09:54;;;;;;;;;;;;;;;24.06;51.57;100688.66;5033371;28;20214;-79
2022/06/06 10:12:34;;;;;;;4.70;3.72;;;;;;;24.16;51.96;100691.94;5015463;28;20008;-79
2022/06/06 10:15:18;;;;;;;4.40;3.38;;;;;;;24.14;52.23;100705.59;5051950;28;20081;-82
2022/06/06 10:18:18;;;;;;;3.92;3.40;;;;;;;24.23;51.52;100698.31;5010540;28;20503;-78
2022/06/06 10:21:14;;;;;;;4.63;3.33;;;;;;;24.27;51.05;100691.53;5031579;28;20404;-79
2022/06/06 10:24:03;;;;;;;5.80;4.20;;;;;;;24.37;50.53;100699.44;4999230;28;20079;-77
2022/06/06 10:26:52;;;;;;;3.60;3.25;;;;;;;24.66;50.95;100693.31;5025834;28;20239;-78
2022/06/06 10:30:12;;;;;;;4.45;3.60;;;;;;;24.88;49.24;100695.13;5051199;28;20646;-78
2022/06/06 10:33:08;;;;;;;3.80;3.40;;;;;;;24.75;49.33;100708.38;5012727;28;20175;-77
2022/06/06 10:35:47;;;;;;;5.05;3.78;;;;;;;24.54;49.87;100700.13;5046171;28;20057;-82
2022/06/06 10:38:42;;;;;;;3.78;3.40;;;;;;;24.44;50.39;100705.75;5030334;28;20057;-78
2022/06/06 10:41:50;;;;;;;4.50;3.40;;;;;;;24.39;50.51;100708.97;5025987;28;20052;-81
2022/06/06 10:44:27;;;;;;;4.13;3.00;;;;;;;24.09;51.01;100710.66;5045160;28;20093;-80
2022/06/06 10:47:25;;;;;;;4.30;3.47;;;;;;;24.22;50.83;100718.97;5011593;28;20053;-79
2022/06/06 10:50:10;;;;;;;5.95;3.13;;;;;;;24.35;49.96;100706.78;5020354;28;20047;-78
2022/06/06 10:53:11;;;;;;;4.60;3.47;;;;;;;24.67;49.12;100701.19;5016017;28;20049;-79
2022/06/06 10:55:54;;;;;;;4.40;3.78;;;;;;;25.23;49.33;100712.53;5024259;28;20052;-84
2022/06/06 10:58:46;;;;;;;3.85;3.10;;;;;;;25.47;47.75;100699.81;5014981;28;20056;-80
2022/06/06 11:01:35;;;;;;;4.20;3.25;;;;;;;25.59;47.68;100709.09;5043378;28;20066;-81
2022/06/06 11:04:38;;;;;;;9.45;3.40;;;;;;;25.89;46.58;100709.97;5011378;28;20088;-84
2022/06/06 11:07:33;;;;;;;4.00;3.70;;;;;;;26.08;46.54;100708.53;5030285;28;20057;-80
2022/06/06 11:10:44;;;;;;;5.93;4.10;;;;;;;25.84;46.54;100700.75;5029564;28;20052;-78
2022/06/06 11:13:36;;;;;;;6.10;3.53;;;;;;;25.67;46.81;100705.50;5014850;28;20045;-78
2022/06/06 11:16:36;;;;;;;5.18;3.08;;;;;;;25.53;46.95;100701.75;5043927;28;20459;-80
2022/06/06 11:19:41;;;;;;;3.67;3.38;;;;;;;25.77;46.27;100702.53;5027672;28;20045;-79
2022/06/06 11:22:25;;;;;;;5.13;3.83;;;;;;;26.20;45.89;100693.50;5029817;28;20075;-76
2022/06/06 11:25:01;;;;;;;4.10;3.33;;;;;;;26.61;45.68;100698.28;5025230;28;20049;-82
2022/06/06 11:27:40;;;;;;;7.95;3.80;;;;;;;26.95;44.26;100697.56;5031106;28;20473;-80
2022/06/06 11:30:36;;;;;;;6.20;3.03;;;;;;;26.89;43.88;100692.13;5015262;28;20041;-77
2022/06/06 11:33:22;;;;;;;;;;;;;;;27.34;43.12;100689.97;5047020;28;20391;-79
2022/06/06 11:36:01;;;;;;;3.30;3.00;;;;;;;27.59;42.63;100691.16;5042134;28;20259;-78
2022/06/06 11:39:02;;;;;;;4.18;3.20;;;;;;;27.52;42.70;100682.19;5030821;28;20045;-78
2022/06/06 11:42:01;;;;;;;4.55;3.30;;;;;;;27.45;43.35;100687.53;5028820;28;20057;-77
2022/06/06 11:44:58;;;;;;;6.83;3.40;;;;;;;26.88;43.21;100685.03;5011720;28;20127;-80
2022/06/06 11:47:37;;;;;;;3.70;2.78;;;;;;;26.43;43.72;100677.19;5005259;28;20052;-79
2022/06/06 11:50:37;;;;;;;3.15;2.70;;;;;;;26.72;44.10;100673.47;5011083;28;20576;-79
2022/06/06 11:53:47;;;;;;;4.15;3.13;;;;;;;27.24;42.49;100674.97;5036211;28;20049;-80
2022/06/06 11:56:35;;;;;;;4.13;2.60;;;;;;;26.87;42.60;100675.25;5027374;28;20075;-77
2022/06/06 11:59:15;;;;;;;3.72;2.97;;;;;;;26.99;42.88;100677.22;5031978;28;20224;-78
2022/06/06 12:02:00;;;;;;;3.22;2.63;;;;;;;26.91;42.63;100690.06;5036047;28;20136;-78
2022/06/06 12:05:05;;;;;;;3.75;2.50;;;;;;;27.11;42.15;100692.91;5057590;28;20139;-81
2022/06/06 12:07:33;;;;;;;4.73;2.77;;;;;;;27.22;41.87;100685.13;5029507;28;20053;-79
2022/06/06 12:10:22;;;;;;;5.68;2.80;;;;;;;27.08;41.44;100674.38;5047389;28;20087;-79
2022/06/06 12:13:25;;;;;;;4.40;2.80;;;;;;;27.06;41.75;100665.63;5024856;28;20524;-80
2022/06/06 12:16:22;;;;;;;4.07;2.60;;;;;;;27.13;41.53;100675.50;5007867;28;20059;-80
2022/06/06 12:19:13;;;;;;;5.18;2.67;;;;;;;26.92;42.01;100675.50;4999111;28;20061;-79
2022/06/06 12:22:08;;;;;;;6.18;3.00;;;;;;;26.75;41.52;100672.28;5034400;28;20053;-79
2022/06/06 12:24:53;;;;;;;3.92;2.90;;;;;;;26.72;42.19;100670.78;5028607;28;20049;-79
2022/06/06 12:27:42;;;;;;;3.22;2.92;;;;;;;27.02;43.40;100666.03;5029435;28;20140;-81
2022/06/06 12:30:33;;;;;;;4.22;3.10;;;;;;;26.48;42.27;100660.41;5028829;28;20040;-79
2022/06/06 12:33:09;;;;;;;6.45;3.13;;;;;;;26.23;43.30;100666.13;5034987;28;20046;-77
2022/06/06 12:36:09;;;;;;;3.65;2.95;;;;;;;25.92;43.81;100660.19;4989545;28;20057;-78
2022/06/06 12:38:46;;;;;;;2.70;2.50;;;;;;;25.48;44.73;100653.78;5007252;28;20378;-78
2022/06/06 12:41:28;;;;;;;2.90;2.60;;;;;;;25.31;44.85;100651.47;5011822;28;20052;-79
2022/06/06 12:43:59;;;;;;;4.88;2.50;;;;;;;25.28;44.62;100647.31;5030644;28;20056;-79
2022/06/06 12:46:42;;;;;;;3.30;2.90;;;;;;;25.41;45.22;100654.75;5027289;28;20526;-78
2022/06/06 12:49:39;;;;;;;4.57;2.95;;;;;;;25.41;45.96;100655.56;5047862;28;20060;-80
2022/06/06 12:52:28;;;;;;;3.67;2.92;;;;;;;25.70;45.55;100648.47;5028559;28;20069;-79
2022/06/06 12:57:50;;;;;;;3.88;2.85;;;;;;;26.23;45.76;100655.34;5032228;28;20053;-79